sensor_id;sensor_type;location;lat;lon;timestamp;P1;durP1;ratioP1;P2;durP2;ratioP2
15482;SDS011;7843;50.330;7.312;2022-08-16T00:00:27;5.57;;;3.40;;
15482;SDS011;7843;50.330;7.312;2022-08-16T00:02:55;3.90;;;2.90;;
15482;SDS011;7843;50.330;7.312;2022-08-16T00:05:23;3.72;;;3.15;;
15482;SDS011;7843;50.330;7.312;2022-08-16T00:07:51;3.23;;;2.70;;
15482;SDS011;7843;50.330;7.312;2022-08-16T00:10:19;4.35;;;2.80;;
15482;SDS011;7843;50.330;7.312;2022-08-16T00:12:46;3.30;;;2.60;;
15482;SDS011;7843;50.330;7.312;2022-08-16T00:15:18;3.75;;;2.90;;
15482;SDS011;7843;50.330;7.312;2022-08-16T00:17:50;5.90;;;2.88;;
15482;SDS011;7843;50.330;7.312;2022-08-16T00:20:17;3.55;;;2.70;;
15482;SDS011;7843;50.330;7.312;2022-08-16T00:22:46;2.92;;;2.70;;
15482;SDS011;7843;50.330;7.312;2022-08-16T00:25:14;3.13;;;2.50;;
15482;SDS011;7843;50.330;7.312;2022-08-16T00:27:42;3.40;;;3.03;;
15482;SDS011;7843;50.330;7.312;2022-08-16T00:30:11;3.60;;;2.90;;
15482;SDS011;7843;50.330;7.312;2022-08-16T00:32:40;4.25;;;3.03;;
15482;SDS011;7843;50.330;7.312;2022-08-16T00:35:11;4.43;;;3.28;;
15482;SDS011;7843;50.330;7.312;2022-08-16T00:37:41;5.03;;;2.95;;
15482;SDS011;7843;50.330;7.312;2022-08-16T00:40:09;3.13;;;2.83;;
15482;SDS011;7843;50.330;7.312;2022-08-16T00:43:05;4.97;;;2.73;;
15482;SDS011;7843;50.330;7.312;2022-08-16T00:45:40;3.83;;;2.72;;
15482;SDS011;7843;50.330;7.312;2022-08-16T00:48:26;3.58;;;2.80;;
15482;SDS011;7843;50.330;7.312;2022-08-16T00:50:55;3.78;;;2.95;;
15482;SDS011;7843;50.330;7.312;2022-08-16T00:53:22;3.47;;;3.17;;
15482;SDS011;7843;50.330;7.312;2022-08-16T00:55:50;2.67;;;2.47;;
15482;SDS011;7843;50.330;7.312;2022-08-16T00:58:20;3.50;;;2.75;;
15482;SDS011;7843;50.330;7.312;2022-08-16T01:00:50;3.92;;;2.80;;
15482;SDS011;7843;50.330;7.312;2022-08-16T01:03:18;4.43;;;2.80;;
15482;SDS011;7843;50.330;7.312;2022-08-16T01:05:46;3.28;;;2.60;;
15482;SDS011;7843;50.330;7.312;2022-08-16T01:08:14;3.00;;;2.70;;
15482;SDS011;7843;50.330;7.312;2022-08-16T01:10:44;4.22;;;2.88;;
15482;SDS011;7843;50.330;7.312;2022-08-16T01:13:13;4.00;;;2.72;;
15482;SDS011;7843;50.330;7.312;2022-08-16T01:15:44;2.67;;;2.47;;
15482;SDS011;7843;50.330;7.312;2022-08-16T01:18:16;3.10;;;2.60;;
15482;SDS011;7843;50.330;7.312;2022-08-16T01:20:46;4.27;;;2.80;;
15482;SDS011;7843;50.330;7.312;2022-08-16T01:23:25;3.30;;;2.92;;
15482;SDS011;7843;50.330;7.312;2022-08-16T01:26:03;2.92;;;2.63;;
15482;SDS011;7843;50.330;7.312;2022-08-16T01:28:30;3.10;;;2.80;;
15482;SDS011;7843;50.330;7.312;2022-08-16T01:30:59;5.27;;;3.17;;
15482;SDS011;7843;50.330;7.312;2022-08-16T01:33:30;4.35;;;2.90;;
15482;SDS011;7843;50.330;7.312;2022-08-16T01:35:57;4.28;;;2.80;;
15482;SDS011;7843;50.330;7.312;2022-08-16T01:38:30;4.57;;;3.22;;
15482;SDS011;7843;50.330;7.312;2022-08-16T01:41:06;5.00;;;3.35;;
15482;SDS011;7843;50.330;7.312;2022-08-16T01:43:36;4.88;;;3.25;;
15482;SDS011;7843;50.330;7.312;2022-08-16T01:46:05;5.18;;;3.35;;
15482;SDS011;7843;50.330;7.312;2022-08-16T01:48:42;3.90;;;3.50;;
15482;SDS011;7843;50.330;7.312;2022-08-16T01:51:09;3.40;;;3.10;;
15482;SDS011;7843;50.330;7.312;2022-08-16T01:53:39;5.13;;;3.50;;
15482;SDS011;7843;50.330;7.312;2022-08-16T01:56:06;4.43;;;3.60;;
15482;SDS011;7843;50.330;7.312;2022-08-16T01:58:33;3.67;;;3.35;;
15482;SDS011;7843;50.330;7.312;2022-08-16T02:00:59;4.75;;;3.70;;
15482;SDS011;7843;50.330;7.312;2022-08-16T02:03:26;4.15;;;3.33;;
15482;SDS011;7843;50.330;7.312;2022-08-16T02:05:53;4.15;;;3.22;;
15482;SDS011;7843;50.330;7.312;2022-08-16T02:08:20;4.97;;;3.42;;
15482;SDS011;7843;50.330;7.312;2022-08-16T02:10:47;4.85;;;3.50;;
15482;SDS011;7843;50.330;7.312;2022-08-16T02:13:14;5.10;;;3.50;;
15482;SDS011;7843;50.330;7.312;2022-08-16T02:15:40;4.30;;;3.90;;
15482;SDS011;7843;50.330;7.312;2022-08-16T02:18:07;5.50;;;4.28;;
15482;SDS011;7843;50.330;7.312;2022-08-16T02:20:35;5.60;;;4.10;;
15482;SDS011;7843;50.330;7.312;2022-08-16T02:23:03;4.78;;;4.38;;
15482;SDS011;7843;50.330;7.312;2022-08-16T02:25:31;6.78;;;5.60;;
15482;SDS011;7843;50.330;7.312;2022-08-16T02:27:58;4.97;;;4.20;;
15482;SDS011;7843;50.330;7.312;2022-08-16T02:30:27;5.90;;;4.13;;
15482;SDS011;7843;50.330;7.312;2022-08-16T02:32:55;5.55;;;4.07;;
15482;SDS011;7843;50.330;7.312;2022-08-16T02:35:23;4.57;;;4.00;;
15482;SDS011;7843;50.330;7.312;2022-08-16T02:37:52;6.05;;;5.07;;
15482;SDS011;7843;50.330;7.312;2022-08-16T02:40:21;6.13;;;5.20;;
15482;SDS011;7843;50.330;7.312;2022-08-16T02:42:49;5.50;;;4.80;;
15482;SDS011;7843;50.330;7.312;2022-08-16T02:45:18;6.10;;;5.15;;
15482;SDS011;7843;50.330;7.312;2022-08-16T02:47:46;7.00;;;4.80;;
15482;SDS011;7843;50.330;7.312;2022-08-16T02:50:13;6.20;;;5.25;;
15482;SDS011;7843;50.330;7.312;2022-08-16T02:52:41;6.18;;;5.25;;
15482;SDS011;7843;50.330;7.312;2022-08-16T02:55:08;5.28;;;4.78;;
15482;SDS011;7843;50.330;7.312;2022-08-16T02:57:36;5.70;;;5.10;;
15482;SDS011;7843;50.330;7.312;2022-08-16T03:00:04;5.28;;;4.78;;
15482;SDS011;7843;50.330;7.312;2022-08-16T03:02:35;5.72;;;4.82;;
15482;SDS011;7843;50.330;7.312;2022-08-16T03:05:02;5.87;;;4.83;;
15482;SDS011;7843;50.330;7.312;2022-08-16T03:07:30;6.23;;;4.93;;
15482;SDS011;7843;50.330;7.312;2022-08-16T03:09:56;5.78;;;4.95;;
15482;SDS011;7843;50.330;7.312;2022-08-16T03:12:23;5.75;;;4.18;;
15482;SDS011;7843;50.330;7.312;2022-08-16T03:14:50;5.28;;;4.57;;
15482;SDS011;7843;50.330;7.312;2022-08-16T03:17:16;5.25;;;4.25;;
15482;SDS011;7843;50.330;7.312;2022-08-16T03:19:43;5.47;;;4.20;;
15482;SDS011;7843;50.330;7.312;2022-08-16T03:22:10;4.53;;;3.83;;
15482;SDS011;7843;50.330;7.312;2022-08-16T03:24:37;4.43;;;3.90;;
15482;SDS011;7843;50.330;7.312;2022-08-16T03:27:03;5.38;;;4.50;;
15482;SDS011;7843;50.330;7.312;2022-08-16T03:29:31;5.38;;;4.68;;
15482;SDS011;7843;50.330;7.312;2022-08-16T03:31:59;5.10;;;4.40;;
15482;SDS011;7843;50.330;7.312;2022-08-16T03:34:27;4.53;;;3.90;;
15482;SDS011;7843;50.330;7.312;2022-08-16T03:36:55;5.03;;;4.40;;
15482;SDS011;7843;50.330;7.312;2022-08-16T03:39:22;5.15;;;4.65;;
15482;SDS011;7843;50.330;7.312;2022-08-16T03:41:49;6.40;;;4.63;;
15482;SDS011;7843;50.330;7.312;2022-08-16T03:44:17;5.90;;;4.30;;
15482;SDS011;7843;50.330;7.312;2022-08-16T03:46:44;5.88;;;4.65;;
15482;SDS011;7843;50.330;7.312;2022-08-16T03:49:11;4.97;;;4.50;;
15482;SDS011;7843;50.330;7.312;2022-08-16T03:51:39;5.80;;;4.30;;
15482;SDS011;7843;50.330;7.312;2022-08-16T03:54:06;5.85;;;5.05;;
15482;SDS011;7843;50.330;7.312;2022-08-16T03:56:33;5.60;;;4.88;;
15482;SDS011;7843;50.330;7.312;2022-08-16T03:59:00;8.02;;;4.97;;
15482;SDS011;7843;50.330;7.312;2022-08-16T04:01:27;5.88;;;4.95;;
15482;SDS011;7843;50.330;7.312;2022-08-16T04:03:54;5.60;;;4.80;;
15482;SDS011;7843;50.330;7.312;2022-08-16T04:06:20;5.20;;;4.68;;
15482;SDS011;7843;50.330;7.312;2022-08-16T04:08:47;6.35;;;4.70;;
15482;SDS011;7843;50.330;7.312;2022-08-16T04:11:14;5.13;;;4.68;;
15482;SDS011;7843;50.330;7.312;2022-08-16T04:13:41;6.03;;;4.90;;
15482;SDS011;7843;50.330;7.312;2022-08-16T04:16:08;5.93;;;4.68;;
15482;SDS011;7843;50.330;7.312;2022-08-16T04:18:36;4.95;;;4.45;;
15482;SDS011;7843;50.330;7.312;2022-08-16T04:21:04;5.13;;;4.40;;
15482;SDS011;7843;50.330;7.312;2022-08-16T04:23:31;5.00;;;4.45;;
15482;SDS011;7843;50.330;7.312;2022-08-16T04:25:58;6.07;;;4.50;;
15482;SDS011;7843;50.330;7.312;2022-08-16T04:28:25;5.47;;;4.70;;
15482;SDS011;7843;50.330;7.312;2022-08-16T04:30:51;7.07;;;5.03;;
15482;SDS011;7843;50.330;7.312;2022-08-16T04:33:18;5.50;;;5.00;;
15482;SDS011;7843;50.330;7.312;2022-08-16T04:35:45;5.82;;;5.15;;
15482;SDS011;7843;50.330;7.312;2022-08-16T04:38:12;7.03;;;5.47;;
15482;SDS011;7843;50.330;7.312;2022-08-16T04:40:38;5.95;;;5.32;;
15482;SDS011;7843;50.330;7.312;2022-08-16T04:43:05;5.53;;;4.70;;
15482;SDS011;7843;50.330;7.312;2022-08-16T04:45:32;5.43;;;4.93;;
15482;SDS011;7843;50.330;7.312;2022-08-16T04:47:59;5.97;;;4.73;;
15482;SDS011;7843;50.330;7.312;2022-08-16T04:50:26;6.43;;;5.28;;
15482;SDS011;7843;50.330;7.312;2022-08-16T04:52:53;7.93;;;5.07;;
15482;SDS011;7843;50.330;7.312;2022-08-16T04:55:22;6.28;;;5.30;;
15482;SDS011;7843;50.330;7.312;2022-08-16T04:57:51;6.90;;;5.15;;
15482;SDS011;7843;50.330;7.312;2022-08-16T05:00:20;5.80;;;5.22;;
15482;SDS011;7843;50.330;7.312;2022-08-16T05:02:50;6.20;;;5.38;;
15482;SDS011;7843;50.330;7.312;2022-08-16T05:05:18;7.10;;;5.70;;
15482;SDS011;7843;50.330;7.312;2022-08-16T05:07:46;7.28;;;4.93;;
15482;SDS011;7843;50.330;7.312;2022-08-16T05:10:13;5.70;;;5.13;;
15482;SDS011;7843;50.330;7.312;2022-08-16T05:12:40;5.88;;;5.25;;
15482;SDS011;7843;50.330;7.312;2022-08-16T05:15:07;5.97;;;5.38;;
15482;SDS011;7843;50.330;7.312;2022-08-16T05:17:35;6.30;;;5.20;;
15482;SDS011;7843;50.330;7.312;2022-08-16T05:20:03;5.93;;;5.33;;
15482;SDS011;7843;50.330;7.312;2022-08-16T05:22:30;7.55;;;5.68;;
15482;SDS011;7843;50.330;7.312;2022-08-16T05:24:57;6.10;;;5.57;;
15482;SDS011;7843;50.330;7.312;2022-08-16T05:27:24;7.25;;;6.00;;
15482;SDS011;7843;50.330;7.312;2022-08-16T05:29:51;7.00;;;6.30;;
15482;SDS011;7843;50.330;7.312;2022-08-16T05:32:17;7.30;;;6.60;;
15482;SDS011;7843;50.330;7.312;2022-08-16T05:34:44;7.95;;;6.72;;
15482;SDS011;7843;50.330;7.312;2022-08-16T05:37:11;7.83;;;7.00;;
15482;SDS011;7843;50.330;7.312;2022-08-16T05:39:40;8.68;;;6.45;;
15482;SDS011;7843;50.330;7.312;2022-08-16T05:42:07;7.65;;;6.95;;
15482;SDS011;7843;50.330;7.312;2022-08-16T05:44:34;9.00;;;7.13;;
15482;SDS011;7843;50.330;7.312;2022-08-16T05:47:01;9.57;;;7.55;;
15482;SDS011;7843;50.330;7.312;2022-08-16T05:49:28;8.40;;;7.60;;
15482;SDS011;7843;50.330;7.312;2022-08-16T05:51:56;8.07;;;7.28;;
15482;SDS011;7843;50.330;7.312;2022-08-16T05:54:25;8.13;;;7.32;;
15482;SDS011;7843;50.330;7.312;2022-08-16T05:56:55;8.00;;;7.20;;
15482;SDS011;7843;50.330;7.312;2022-08-16T05:59:22;8.77;;;7.93;;
15482;SDS011;7843;50.330;7.312;2022-08-16T06:01:50;8.65;;;7.85;;
15482;SDS011;7843;50.330;7.312;2022-08-16T06:04:17;8.52;;;7.72;;
15482;SDS011;7843;50.330;7.312;2022-08-16T06:06:45;8.70;;;7.85;;
15482;SDS011;7843;50.330;7.312;2022-08-16T06:09:14;8.80;;;7.90;;
15482;SDS011;7843;50.330;7.312;2022-08-16T06:11:42;8.77;;;7.88;;
15482;SDS011;7843;50.330;7.312;2022-08-16T06:14:09;9.00;;;8.07;;
15482;SDS011;7843;50.330;7.312;2022-08-16T06:16:37;8.98;;;8.07;;
15482;SDS011;7843;50.330;7.312;2022-08-16T06:19:03;9.43;;;8.43;;
15482;SDS011;7843;50.330;7.312;2022-08-16T06:21:30;9.70;;;8.70;;
15482;SDS011;7843;50.330;7.312;2022-08-16T06:23:57;9.82;;;8.93;;
15482;SDS011;7843;50.330;7.312;2022-08-16T06:26:24;10.15;;;9.15;;
15482;SDS011;7843;50.330;7.312;2022-08-16T06:28:51;10.38;;;8.85;;
15482;SDS011;7843;50.330;7.312;2022-08-16T06:31:17;10.27;;;9.27;;
15482;SDS011;7843;50.330;7.312;2022-08-16T06:33:44;9.80;;;8.80;;
15482;SDS011;7843;50.330;7.312;2022-08-16T06:36:11;10.15;;;9.20;;
15482;SDS011;7843;50.330;7.312;2022-08-16T06:38:39;10.30;;;9.30;;
15482;SDS011;7843;50.330;7.312;2022-08-16T06:41:07;9.65;;;8.65;;
15482;SDS011;7843;50.330;7.312;2022-08-16T06:43:34;8.57;;;7.78;;
15482;SDS011;7843;50.330;7.312;2022-08-16T06:46:03;8.40;;;7.65;;
15482;SDS011;7843;50.330;7.312;2022-08-16T06:48:33;9.30;;;8.23;;
15482;SDS011;7843;50.330;7.312;2022-08-16T06:51:03;8.30;;;7.20;;
15482;SDS011;7843;50.330;7.312;2022-08-16T06:53:31;8.45;;;7.10;;
15482;SDS011;7843;50.330;7.312;2022-08-16T06:56:00;11.10;;;7.53;;
15482;SDS011;7843;50.330;7.312;2022-08-16T06:58:31;7.80;;;7.10;;
15482;SDS011;7843;50.330;7.312;2022-08-16T07:01:01;7.65;;;6.95;;
15482;SDS011;7843;50.330;7.312;2022-08-16T07:03:29;10.40;;;7.32;;
15482;SDS011;7843;50.330;7.312;2022-08-16T07:05:56;8.60;;;7.05;;
15482;SDS011;7843;50.330;7.312;2022-08-16T07:08:24;7.32;;;6.63;;
15482;SDS011;7843;50.330;7.312;2022-08-16T07:10:53;7.53;;;6.45;;
15482;SDS011;7843;50.330;7.312;2022-08-16T07:13:19;7.40;;;6.70;;
15482;SDS011;7843;50.330;7.312;2022-08-16T07:15:57;6.95;;;6.25;;
15482;SDS011;7843;50.330;7.312;2022-08-16T07:18:25;7.68;;;6.88;;
15482;SDS011;7843;50.330;7.312;2022-08-16T07:20:52;7.15;;;6.43;;
15482;SDS011;7843;50.330;7.312;2022-08-16T07:23:19;7.30;;;6.18;;
15482;SDS011;7843;50.330;7.312;2022-08-16T07:25:46;7.32;;;6.38;;
15482;SDS011;7843;50.330;7.312;2022-08-16T07:28:14;7.28;;;6.10;;
15482;SDS011;7843;50.330;7.312;2022-08-16T07:30:42;6.68;;;6.00;;
15482;SDS011;7843;50.330;7.312;2022-08-16T07:33:11;7.75;;;6.38;;
15482;SDS011;7843;50.330;7.312;2022-08-16T07:35:39;8.77;;;6.72;;
15482;SDS011;7843;50.330;7.312;2022-08-16T07:38:06;7.03;;;6.30;;
15482;SDS011;7843;50.330;7.312;2022-08-16T07:40:33;6.57;;;5.93;;
15482;SDS011;7843;50.330;7.312;2022-08-16T07:43:22;8.43;;;6.22;;
15482;SDS011;7843;50.330;7.312;2022-08-16T07:45:49;7.32;;;5.85;;
15482;SDS011;7843;50.330;7.312;2022-08-16T07:48:17;9.47;;;6.60;;
15482;SDS011;7843;50.330;7.312;2022-08-16T07:50:44;7.93;;;6.07;;
15482;SDS011;7843;50.330;7.312;2022-08-16T07:53:11;8.90;;;6.07;;
15482;SDS011;7843;50.330;7.312;2022-08-16T07:55:39;8.07;;;5.90;;
15482;SDS011;7843;50.330;7.312;2022-08-16T07:58:06;10.02;;;5.65;;
15482;SDS011;7843;50.330;7.312;2022-08-16T08:00:33;8.83;;;6.33;;
15482;SDS011;7843;50.330;7.312;2022-08-16T08:03:01;6.70;;;5.97;;
15482;SDS011;7843;50.330;7.312;2022-08-16T08:05:29;8.00;;;5.10;;
15482;SDS011;7843;50.330;7.312;2022-08-16T08:07:56;8.17;;;5.83;;
15482;SDS011;7843;50.330;7.312;2022-08-16T08:10:23;5.60;;;4.80;;
15482;SDS011;7843;50.330;7.312;2022-08-16T08:12:51;5.43;;;4.87;;
15482;SDS011;7843;50.330;7.312;2022-08-16T08:15:19;7.13;;;5.35;;
15482;SDS011;7843;50.330;7.312;2022-08-16T08:17:46;7.72;;;5.60;;
15482;SDS011;7843;50.330;7.312;2022-08-16T08:20:16;5.50;;;4.90;;
15482;SDS011;7843;50.330;7.312;2022-08-16T08:22:45;5.20;;;4.70;;
15482;SDS011;7843;50.330;7.312;2022-08-16T08:25:14;5.10;;;4.60;;
15482;SDS011;7843;50.330;7.312;2022-08-16T08:27:41;5.47;;;4.97;;
15482;SDS011;7843;50.330;7.312;2022-08-16T08:30:08;5.57;;;4.60;;
15482;SDS011;7843;50.330;7.312;2022-08-16T08:32:36;5.10;;;4.60;;
15482;SDS011;7843;50.330;7.312;2022-08-16T08:35:03;6.03;;;4.43;;
15482;SDS011;7843;50.330;7.312;2022-08-16T08:37:33;5.18;;;4.50;;
15482;SDS011;7843;50.330;7.312;2022-08-16T08:40:02;5.18;;;4.35;;
15482;SDS011;7843;50.330;7.312;2022-08-16T08:42:31;6.60;;;4.57;;
15482;SDS011;7843;50.330;7.312;2022-08-16T08:44:58;5.90;;;4.30;;
15482;SDS011;7843;50.330;7.312;2022-08-16T08:47:24;4.97;;;4.47;;
15482;SDS011;7843;50.330;7.312;2022-08-16T08:49:52;4.07;;;3.67;;
15482;SDS011;7843;50.330;7.312;2022-08-16T08:52:21;5.60;;;4.05;;
15482;SDS011;7843;50.330;7.312;2022-08-16T08:54:48;6.50;;;3.80;;
15482;SDS011;7843;50.330;7.312;2022-08-16T08:57:15;8.63;;;4.07;;
15482;SDS011;7843;50.330;7.312;2022-08-16T08:59:43;4.72;;;4.20;;
15482;SDS011;7843;50.330;7.312;2022-08-16T09:02:11;6.25;;;3.60;;
15482;SDS011;7843;50.330;7.312;2022-08-16T09:04:42;4.40;;;3.70;;
15482;SDS011;7843;50.330;7.312;2022-08-16T09:07:10;3.70;;;3.40;;
15482;SDS011;7843;50.330;7.312;2022-08-16T09:09:37;4.75;;;3.50;;
15482;SDS011;7843;50.330;7.312;2022-08-16T09:12:04;5.80;;;3.63;;
15482;SDS011;7843;50.330;7.312;2022-08-16T09:14:33;5.63;;;3.47;;
15482;SDS011;7843;50.330;7.312;2022-08-16T09:17:05;3.97;;;3.17;;
15482;SDS011;7843;50.330;7.312;2022-08-16T09:19:32;3.90;;;3.10;;
15482;SDS011;7843;50.330;7.312;2022-08-16T09:21:59;4.43;;;3.00;;
15482;SDS011;7843;50.330;7.312;2022-08-16T09:24:26;4.67;;;2.87;;
15482;SDS011;7843;50.330;7.312;2022-08-16T09:26:53;5.70;;;3.13;;
15482;SDS011;7843;50.330;7.312;2022-08-16T09:29:20;3.38;;;2.80;;
15482;SDS011;7843;50.330;7.312;2022-08-16T09:31:47;3.35;;;2.80;;
15482;SDS011;7843;50.330;7.312;2022-08-16T09:34:14;4.20;;;2.70;;
15482;SDS011;7843;50.330;7.312;2022-08-16T09:36:44;3.25;;;2.60;;
15482;SDS011;7843;50.330;7.312;2022-08-16T09:39:10;3.75;;;2.72;;
15482;SDS011;7843;50.330;7.312;2022-08-16T09:41:37;5.63;;;2.63;;
15482;SDS011;7843;50.330;7.312;2022-08-16T09:44:04;2.80;;;2.30;;
15482;SDS011;7843;50.330;7.312;2022-08-16T09:46:31;3.30;;;2.90;;
15482;SDS011;7843;50.330;7.312;2022-08-16T09:48:58;3.58;;;2.67;;
15482;SDS011;7843;50.330;7.312;2022-08-16T09:51:25;3.63;;;2.58;;
15482;SDS011;7843;50.330;7.312;2022-08-16T09:53:53;2.90;;;2.30;;
15482;SDS011;7843;50.330;7.312;2022-08-16T09:56:25;3.78;;;2.33;;
15482;SDS011;7843;50.330;7.312;2022-08-16T09:58:56;3.83;;;2.63;;
15482;SDS011;7843;50.330;7.312;2022-08-16T10:01:23;4.38;;;2.67;;
15482;SDS011;7843;50.330;7.312;2022-08-16T10:03:51;3.40;;;2.47;;
15482;SDS011;7843;50.330;7.312;2022-08-16T10:06:19;4.57;;;2.30;;
15482;SDS011;7843;50.330;7.312;2022-08-16T10:08:47;2.67;;;2.20;;
15482;SDS011;7843;50.330;7.312;2022-08-16T10:11:14;2.75;;;2.30;;
15482;SDS011;7843;50.330;7.312;2022-08-16T10:14:00;2.60;;;2.37;;
15482;SDS011;7843;50.330;7.312;2022-08-16T10:16:27;4.10;;;2.23;;
15482;SDS011;7843;50.330;7.312;2022-08-16T10:18:54;4.00;;;2.30;;
15482;SDS011;7843;50.330;7.312;2022-08-16T10:21:21;2.70;;;2.20;;
15482;SDS011;7843;50.330;7.312;2022-08-16T10:23:48;2.80;;;2.22;;
15482;SDS011;7843;50.330;7.312;2022-08-16T10:26:17;3.13;;;2.22;;
15482;SDS011;7843;50.330;7.312;2022-08-16T10:28:43;3.78;;;2.75;;
15482;SDS011;7843;50.330;7.312;2022-08-16T10:31:12;3.28;;;2.30;;
15482;SDS011;7843;50.330;7.312;2022-08-16T10:33:39;4.22;;;2.50;;
15482;SDS011;7843;50.330;7.312;2022-08-16T10:36:06;2.75;;;1.85;;
15482;SDS011;7843;50.330;7.312;2022-08-16T10:38:34;4.88;;;2.58;;
15482;SDS011;7843;50.330;7.312;2022-08-16T10:41:04;3.67;;;2.33;;
15482;SDS011;7843;50.330;7.312;2022-08-16T10:43:32;3.13;;;2.20;;
15482;SDS011;7843;50.330;7.312;2022-08-16T10:45:59;3.45;;;1.98;;
15482;SDS011;7843;50.330;7.312;2022-08-16T10:48:28;3.28;;;2.30;;
15482;SDS011;7843;50.330;7.312;2022-08-16T10:50:56;3.03;;;2.15;;
15482;SDS011;7843;50.330;7.312;2022-08-16T10:53:24;2.67;;;2.33;;
15482;SDS011;7843;50.330;7.312;2022-08-16T10:55:52;4.00;;;2.07;;
15482;SDS011;7843;50.330;7.312;2022-08-16T10:58:19;3.65;;;1.90;;
15482;SDS011;7843;50.330;7.312;2022-08-16T11:00:46;4.82;;;2.50;;
15482;SDS011;7843;50.330;7.312;2022-08-16T11:03:13;4.03;;;2.40;;
15482;SDS011;7843;50.330;7.312;2022-08-16T11:06:00;2.35;;;2.00;;
15482;SDS011;7843;50.330;7.312;2022-08-16T11:08:28;3.20;;;2.20;;
15482;SDS011;7843;50.330;7.312;2022-08-16T11:10:55;2.70;;;2.10;;
15482;SDS011;7843;50.330;7.312;2022-08-16T11:13:24;2.55;;;2.15;;
15482;SDS011;7843;50.330;7.312;2022-08-16T11:16:11;3.17;;;1.90;;
15482;SDS011;7843;50.330;7.312;2022-08-16T11:18:58;4.07;;;2.08;;
15482;SDS011;7843;50.330;7.312;2022-08-16T11:21:25;2.30;;;1.60;;
15482;SDS011;7843;50.330;7.312;2022-08-16T11:23:52;2.38;;;1.95;;
15482;SDS011;7843;50.330;7.312;2022-08-16T11:26:19;1.73;;;1.60;;
15482;SDS011;7843;50.330;7.312;2022-08-16T11:28:45;2.17;;;1.30;;
15482;SDS011;7843;50.330;7.312;2022-08-16T11:31:34;1.70;;;1.40;;
15482;SDS011;7843;50.330;7.312;2022-08-16T11:34:01;4.97;;;1.25;;
15482;SDS011;7843;50.330;7.312;2022-08-16T11:36:27;2.23;;;1.50;;
15482;SDS011;7843;50.330;7.312;2022-08-16T11:38:55;1.98;;;1.30;;
15482;SDS011;7843;50.330;7.312;2022-08-16T11:41:25;2.60;;;1.50;;
15482;SDS011;7843;50.330;7.312;2022-08-16T11:43:52;1.50;;;1.23;;
15482;SDS011;7843;50.330;7.312;2022-08-16T11:46:19;1.73;;;1.30;;
15482;SDS011;7843;50.330;7.312;2022-08-16T11:48:46;1.73;;;1.10;;
15482;SDS011;7843;50.330;7.312;2022-08-16T11:51:13;2.73;;;1.40;;
15482;SDS011;7843;50.330;7.312;2022-08-16T11:53:40;1.85;;;1.20;;
15482;SDS011;7843;50.330;7.312;2022-08-16T11:56:07;2.03;;;1.20;;
15482;SDS011;7843;50.330;7.312;2022-08-16T11:58:34;1.23;;;1.10;;
15482;SDS011;7843;50.330;7.312;2022-08-16T12:01:02;2.20;;;1.10;;
15482;SDS011;7843;50.330;7.312;2022-08-16T12:03:29;2.30;;;1.10;;
15482;SDS011;7843;50.330;7.312;2022-08-16T12:05:57;2.20;;;1.40;;
15482;SDS011;7843;50.330;7.312;2022-08-16T12:08:27;1.50;;;1.08;;
15482;SDS011;7843;50.330;7.312;2022-08-16T12:10:55;2.70;;;1.20;;
15482;SDS011;7843;50.330;7.312;2022-08-16T12:13:22;2.63;;;1.17;;
15482;SDS011;7843;50.330;7.312;2022-08-16T12:15:49;4.10;;;1.10;;
15482;SDS011;7843;50.330;7.312;2022-08-16T12:18:15;1.92;;;1.17;;
15482;SDS011;7843;50.330;7.312;2022-08-16T12:20:43;3.10;;;1.50;;
15482;SDS011;7843;50.330;7.312;2022-08-16T12:23:10;1.35;;;1.10;;
15482;SDS011;7843;50.330;7.312;2022-08-16T12:25:37;3.10;;;1.17;;
15482;SDS011;7843;50.330;7.312;2022-08-16T12:28:05;2.10;;;1.25;;
15482;SDS011;7843;50.330;7.312;2022-08-16T12:30:34;1.83;;;1.30;;
15482;SDS011;7843;50.330;7.312;2022-08-16T12:33:05;4.30;;;1.37;;
15482;SDS011;7843;50.330;7.312;2022-08-16T12:35:35;4.87;;;1.40;;
15482;SDS011;7843;50.330;7.312;2022-08-16T12:38:04;1.90;;;1.40;;
15482;SDS011;7843;50.330;7.312;2022-08-16T12:40:33;2.40;;;1.10;;
15482;SDS011;7843;50.330;7.312;2022-08-16T12:43:03;2.55;;;1.50;;
15482;SDS011;7843;50.330;7.312;2022-08-16T12:45:32;2.20;;;1.10;;
15482;SDS011;7843;50.330;7.312;2022-08-16T12:48:01;2.05;;;1.20;;
15482;SDS011;7843;50.330;7.312;2022-08-16T12:51:07;2.45;;;1.45;;
15482;SDS011;7843;50.330;7.312;2022-08-16T12:53:36;2.88;;;1.35;;
15482;SDS011;7843;50.330;7.312;2022-08-16T12:56:03;2.60;;;1.40;;
15482;SDS011;7843;50.330;7.312;2022-08-16T12:58:32;2.22;;;1.40;;
15482;SDS011;7843;50.330;7.312;2022-08-16T13:00:59;2.33;;;1.23;;
15482;SDS011;7843;50.330;7.312;2022-08-16T13:03:26;1.43;;;1.30;;
15482;SDS011;7843;50.330;7.312;2022-08-16T13:05:53;1.63;;;1.48;;
15482;SDS011;7843;50.330;7.312;2022-08-16T13:08:21;2.28;;;1.50;;
15482;SDS011;7843;50.330;7.312;2022-08-16T13:10:49;2.47;;;1.50;;
15482;SDS011;7843;50.330;7.312;2022-08-16T13:13:17;2.35;;;1.60;;
15482;SDS011;7843;50.330;7.312;2022-08-16T13:15:52;1.90;;;1.40;;
15482;SDS011;7843;50.330;7.312;2022-08-16T13:18:25;2.45;;;1.38;;
15482;SDS011;7843;50.330;7.312;2022-08-16T13:20:54;3.70;;;1.40;;
15482;SDS011;7843;50.330;7.312;2022-08-16T13:23:22;3.67;;;1.30;;
15482;SDS011;7843;50.330;7.312;2022-08-16T13:25:49;2.78;;;1.30;;
15482;SDS011;7843;50.330;7.312;2022-08-16T13:28:17;3.90;;;1.30;;
15482;SDS011;7843;50.330;7.312;2022-08-16T13:30:49;1.63;;;1.23;;
15482;SDS011;7843;50.330;7.312;2022-08-16T13:33:18;2.10;;;1.40;;
15482;SDS011;7843;50.330;7.312;2022-08-16T13:35:49;3.25;;;1.70;;
15482;SDS011;7843;50.330;7.312;2022-08-16T13:38:18;2.15;;;1.40;;
15482;SDS011;7843;50.330;7.312;2022-08-16T13:40:45;2.92;;;1.35;;
15482;SDS011;7843;50.330;7.312;2022-08-16T13:43:12;2.38;;;1.30;;
15482;SDS011;7843;50.330;7.312;2022-08-16T13:45:39;3.97;;;1.40;;
15482;SDS011;7843;50.330;7.312;2022-08-16T13:48:06;1.35;;;1.20;;
15482;SDS011;7843;50.330;7.312;2022-08-16T13:50:33;3.17;;;1.60;;
15482;SDS011;7843;50.330;7.312;2022-08-16T13:53:01;3.38;;;1.45;;
15482;SDS011;7843;50.330;7.312;2022-08-16T13:55:28;1.67;;;1.58;;
15482;SDS011;7843;50.330;7.312;2022-08-16T13:57:55;1.55;;;1.20;;
15482;SDS011;7843;50.330;7.312;2022-08-16T14:00:21;1.90;;;1.40;;
15482;SDS011;7843;50.330;7.312;2022-08-16T14:02:48;3.15;;;1.50;;
15482;SDS011;7843;50.330;7.312;2022-08-16T14:05:15;2.53;;;1.38;;
15482;SDS011;7843;50.330;7.312;2022-08-16T14:07:42;3.22;;;1.30;;
15482;SDS011;7843;50.330;7.312;2022-08-16T14:10:10;2.65;;;1.33;;
15482;SDS011;7843;50.330;7.312;2022-08-16T14:12:38;2.88;;;1.40;;
15482;SDS011;7843;50.330;7.312;2022-08-16T14:15:06;2.58;;;1.42;;
15482;SDS011;7843;50.330;7.312;2022-08-16T14:17:34;2.05;;;1.40;;
15482;SDS011;7843;50.330;7.312;2022-08-16T14:20:01;2.67;;;1.30;;
15482;SDS011;7843;50.330;7.312;2022-08-16T14:22:30;1.20;;;1.10;;
15482;SDS011;7843;50.330;7.312;2022-08-16T14:25:00;1.40;;;1.30;;
15482;SDS011;7843;50.330;7.312;2022-08-16T14:27:27;2.17;;;1.30;;
15482;SDS011;7843;50.330;7.312;2022-08-16T14:29:55;2.30;;;1.30;;
15482;SDS011;7843;50.330;7.312;2022-08-16T14:32:23;2.00;;;1.13;;
15482;SDS011;7843;50.330;7.312;2022-08-16T14:34:53;1.42;;;1.25;;
15482;SDS011;7843;50.330;7.312;2022-08-16T14:37:21;1.52;;;1.20;;
15482;SDS011;7843;50.330;7.312;2022-08-16T14:39:48;3.22;;;1.40;;
15482;SDS011;7843;50.330;7.312;2022-08-16T14:42:16;1.23;;;1.10;;
15482;SDS011;7843;50.330;7.312;2022-08-16T14:44:45;2.88;;;1.17;;
15482;SDS011;7843;50.330;7.312;2022-08-16T14:47:13;1.23;;;1.10;;
15482;SDS011;7843;50.330;7.312;2022-08-16T14:49:40;2.72;;;1.15;;
15482;SDS011;7843;50.330;7.312;2022-08-16T14:52:09;1.88;;;1.30;;
15482;SDS011;7843;50.330;7.312;2022-08-16T14:54:38;4.30;;;1.17;;
15482;SDS011;7843;50.330;7.312;2022-08-16T14:57:08;4.82;;;1.25;;
15482;SDS011;7843;50.330;7.312;2022-08-16T14:59:34;1.50;;;1.15;;
15482;SDS011;7843;50.330;7.312;2022-08-16T15:02:01;1.60;;;1.20;;
15482;SDS011;7843;50.330;7.312;2022-08-16T15:04:29;1.73;;;1.27;;
15482;SDS011;7843;50.330;7.312;2022-08-16T15:06:58;4.28;;;1.33;;